Flight Track Log - Related Links

Times and Time Zones

All times are in EDT time to prevent confusion due to time zone crossing. See the SWA3206 flight status page for this flight to view local times or setup timezone preferences in your user account.

Time Position Orientation Groundspeed Altitude Reporting Facility
EDT Latitude Longitude Course Direction KTS MPH feet Rate Location/Type
Mon 06:57:20 PM 32.7383 -117.2139 287° West 164 189 1,500  Level Los Angeles Center
Mon 06:58:22 PM 32.7550 -117.2769 287° West 194 223 4,400 3,581 Climbing Los Angeles Center
Mon 06:59:24 PM 32.7067 -117.3447 230° Southwest 261 300 8,900 3,667 Climbing Los Angeles Center
Mon 07:00:28 PM 32.6553 -117.2725 130° Southeast 301 346 12,100 3,524 Climbing Los Angeles Center
Mon 07:01:30 PM 32.6375 -117.1606 101° East 336 387 16,300 3,677 Climbing Los Angeles Center
Mon 07:02:32 PM 32.6203 -117.0439 100° East 353 406 19,700 3,097 Climbing Los Angeles Center
Mon 07:03:34 PM 32.6150 -116.9181 93° East 379 436 22,700 3,194 Climbing Los Angeles Center
Mon 07:04:36 PM 32.6311 -116.7619 83° East 396 456 26,300 2,855 Climbing Los Angeles Center
Mon 07:05:38 PM 32.6458 -116.6272 83° East 410 472 28,600 2,371 Climbing Los Angeles Center
Mon 07:06:40 PM 32.6578 -116.4906 84° East 420 483 31,200 2,129 Climbing Los Angeles Center
Mon 07:07:42 PM 32.6697 -116.3531 84° East 427 491 33,000 871 Climbing Los Angeles Center
Mon 07:08:44 PM 32.6858 -116.1889 83° East 426 490 33,000  Level Los Angeles Center
Mon 07:09:46 PM 32.6992 -116.0528 83° East 421 484 33,000  Level Los Angeles Center
Mon 07:10:48 PM 32.7122 -115.9167 83° East 419 482 33,000  Level Los Angeles Center
Mon 07:11:49 PM 32.7242 -115.7806 84° East 419 482 33,000  Level Los Angeles Center
Mon 07:12:51 PM 32.7369 -115.6447 84° East 417 480 33,000  Level Los Angeles Center
Mon 07:13:53 PM 32.7492 -115.5089 84° East 417 480 33,000  Level Los Angeles Center
Mon 07:14:55 PM 32.7536 -115.3431 88° East 420 483 33,000  Level Los Angeles Center
Mon 07:15:57 PM 32.7594 -115.2069 87° East 416 479 33,000 -339 Level Los Angeles Center
Mon 07:16:59 PM 32.7617 -115.0692 89° East 417 480 32,300 -780 Descending Los Angeles Center
Mon 07:18:00 PM 32.7644 -114.9325 89° East 414 476 31,400 -1,366 Descending Los Angeles Center
Mon 07:19:02 PM 32.7664 -114.7950 89° East 416 479 29,500 -2,903 Descending Los Angeles Center
Mon 07:20:04 PM 32.7689 -114.6558 89° East 423 487 25,400 -2,177 Descending Los Angeles Center
Mon 07:21:06 PM 32.7697 -114.4872 90° East 425 489 25,000 -194 Descending Los Angeles Center
Mon 07:22:08 PM 32.7689 -114.3483 90° East 422 486 25,000  Level Los Angeles Center
Mon 07:23:09 PM 32.7694 -114.2094 90° East 421 484 25,000  Level Los Angeles Center
Mon 07:23:57 PM 32.7739 -114.1094 87° East 426 490 25,000 -109 Level Albuquerque Center
Mon 07:24:59 PM 32.7756 -113.9692 89° East 426 490 24,800 -488 Descending Albuquerque Center
Mon 07:26:00 PM 32.8294 -113.8511 61° Northeast 414 476 24,000 -393 Descending Albuquerque Center
Mon 07:27:01 PM 32.8903 -113.7153 62° Northeast 400 460 24,000  Level Albuquerque Center
Mon 07:28:03 PM 32.9394 -113.6042 62° Northeast 386 444 24,000  Level Albuquerque Center
Mon 07:29:04 PM 32.9875 -113.4928 63° Northeast 380 437 24,000  Level Albuquerque Center
Mon 07:30:06 PM 33.0367 -113.3817 62° Northeast 379 436 24,000 -195 Level Albuquerque Center
Mon 07:31:07 PM 33.0853 -113.2694 63° Northeast 380 437 23,600 -1,220 Descending Albuquerque Center
Mon 07:32:09 PM 33.1325 -113.1597 63° Northeast 374 430 21,500 -2,049 Descending Albuquerque Center
Mon 07:33:10 PM 33.1800 -113.0511 62° Northeast 370 426 19,400 -2,049 Descending Albuquerque Center
Mon 07:34:12 PM 33.2253 -112.9456 63° Northeast 361 415 17,300 -1,659 Descending Albuquerque Center
Mon 07:35:13 PM 33.2689 -112.8456 62° Northeast 346 398 16,000 -634 Descending Albuquerque Center
Mon 07:36:15 PM 33.2819 -112.7478 81° East 311 358 16,000 -488 Level Albuquerque Center
Mon 07:37:16 PM 33.2836 -112.6306 89° East 296 341 15,000 -1,131 Descending Albuquerque Center
Mon 07:38:17 PM 33.2869 -112.5436 87° East 285 328 13,700 -1,317 Descending Albuquerque Center
Mon 07:39:19 PM 33.2894 -112.4464 88° East 289 333 12,300 -1,220 Descending Albuquerque Center
Mon 07:40:20 PM 33.2917 -112.3525 88° East 288 331 11,200 -732 Descending Albuquerque Center
Mon 07:41:22 PM 33.2969 -112.2678 86° East 271 312 10,800 -726 Descending Albuquerque Center
Mon 07:42:24 PM 33.3039 -112.1875 84° East 253 291 9,700 -927 Descending Albuquerque Center
Mon 07:43:25 PM 33.3119 -112.0925 84° East 247 284 8,900 -1,033 Descending Albuquerque Center
Mon 07:44:26 PM 33.3300 -112.0161 74° East 243 280 7,600 -1,171 Descending Albuquerque Center
Mon 07:45:28 PM 33.3481 -111.9397 74° East 241 277 6,500 -1,122 Descending Albuquerque Center
Mon 07:46:29 PM 33.3478 -111.8622 90° East 239 275 5,300 -1,024 Descending Albuquerque Center
Mon 07:47:31 PM 33.4006 -111.8406 19° North 221 254 4,400 -1,016 Descending Albuquerque Center
Mon 07:48:33 PM 33.4289 -111.8844 308° West 199 229 3,200 -1,073 Descending Albuquerque Center
Mon 07:49:34 PM 33.4300 -111.9347 272° West 169 194 2,200 -829 Descending Albuquerque Center
Mon 07:50:36 PM 33.4303 -111.9800 270° West 152 175 1,500 -537 Descending Albuquerque Center
Mon 07:51:37 PM 33.4314 -112.0361 271° West 150 173 1,100 -393 Descending Albuquerque Center

Login

Don't have an account? Register now (free) for customized features, flight alerts, and more!